Time;durP1;ratioP1;P1;durP2;ratioP2;P2;SDS_P1;SDS_P2;PMS_P1;PMS_P2;Temp;Humidity;BMP_temperature;BMP_pressure;BME280_temperature;BME280_humidity;BME280_pressure;Samples;Min_cycle;Max_cycle;Signal;HPM_P1;HPM_P2
2021/03/20 00:01:53;;;;;;;5.57;4.15;;;5.40;98.70;;;;;;5091889;28;20058;-72
2021/03/20 00:04:20;;;;;;;7.15;4.10;;;5.40;99.00;;;;;;5093096;28;20075;-73
2021/03/20 00:06:49;;;;;;;4.50;3.75;;;5.40;99.10;;;;;;5096157;28;20024;-73
2021/03/20 00:09:18;;;;;;;4.90;4.05;;;5.30;99.30;;;;;;5091242;28;20012;-73
2021/03/20 00:11:56;;;;;;;6.47;4.60;;;5.30;99.60;;;;;;5092793;28;20115;-71
2021/03/20 00:14:23;;;;;;;5.38;4.00;;;5.20;99.40;;;;;;5095306;28;20038;-72
2021/03/20 00:16:49;;;;;;;9.98;4.72;;;5.20;99.40;;;;;;5095480;28;20024;-73
2021/03/20 00:19:16;;;;;;;7.80;5.30;;;5.10;99.10;;;;;;5096655;28;20027;-73
2021/03/20 00:21:41;;;;;;;5.45;3.88;;;5.10;99.20;;;;;;5095736;28;20092;-74
2021/03/20 00:24:08;;;;;;;10.52;6.78;;;5.20;99.00;;;;;;5095543;28;20428;-73
2021/03/20 00:26:35;;;;;;;4.80;4.28;;;5.10;99.00;;;;;;5098031;28;20020;-73
2021/03/20 00:29:01;;;;;;;7.80;3.85;;;5.20;98.80;;;;;;5091987;28;20043;-72
2021/03/20 00:31:26;;;;;;;5.30;4.40;;;5.30;98.60;;;;;;5092849;28;20020;-73
2021/03/20 00:33:52;;;;;;;7.40;4.18;;;5.30;98.70;;;;;;5095891;28;20032;-73
2021/03/20 00:36:19;;;;;;;5.25;3.50;;;5.30;98.60;;;;;;5096652;28;20028;-72
2021/03/20 00:38:45;;;;;;;7.30;4.28;;;5.30;98.30;;;;;;5079086;28;20169;-71
2021/03/20 00:41:11;;;;;;;6.07;5.03;;;5.30;98.10;;;;;;5087318;28;20113;-72
2021/03/20 00:43:37;;;;;;;9.63;4.18;;;5.30;97.80;;;;;;5085190;28;20027;-72
2021/03/20 00:46:04;;;;;;;4.63;3.67;;;5.40;97.70;;;;;;5093195;28;20470;-71
2021/03/20 00:48:32;;;;;;;5.50;4.38;;;5.30;97.70;;;;;;5093930;28;20099;-73
2021/03/20 00:50:59;;;;;;;7.22;5.07;;;5.30;98.20;;;;;;5092209;28;20111;-73
2021/03/20 00:53:25;;;;;;;8.73;5.07;;;5.30;98.30;;;;;;5095930;28;20673;-72
2021/03/20 00:55:52;;;;;;;4.97;4.22;;;5.30;98.30;;;;;;5095837;28;20107;-72
2021/03/20 00:58:22;;;;;;;4.68;4.13;;;5.30;98.40;;;;;;5097827;28;20036;-71
2021/03/20 01:00:49;;;;;;;5.85;4.82;;;5.30;98.40;;;;;;5091639;28;20031;-72
2021/03/20 01:03:15;;;;;;;5.20;4.55;;;5.30;98.30;;;;;;5096806;28;20038;-73
2021/03/20 01:05:41;;;;;;;5.85;3.95;;;5.30;98.30;;;;;;5097038;28;20036;-72
2021/03/20 01:08:07;;;;;;;8.43;5.38;;;5.20;98.30;;;;;;5097123;28;20024;-73
2021/03/20 01:10:33;;;;;;;7.80;4.90;;;5.20;98.20;;;;;;5092730;28;20020;-73
2021/03/20 01:12:59;;;;;;;6.93;5.32;;;5.30;98.40;;;;;;5095254;28;20654;-73
2021/03/20 01:15:28;;;;;;;8.52;4.85;;;5.30;98.30;;;;;;5084006;28;20016;-73
2021/03/20 01:17:53;;;;;;;5.93;4.03;;;5.30;98.20;;;;;;5094268;28;20040;-73
2021/03/20 01:20:19;;;;;;;7.93;4.32;;;5.30;98.30;;;;;;5091678;28;20032;-73
2021/03/20 01:22:45;;;;;;;4.38;3.35;;;5.30;98.40;;;;;;5094925;28;20029;-73
2021/03/20 01:25:11;;;;;;;6.95;4.78;;;5.20;98.10;;;;;;5093431;28;20028;-73
2021/03/20 01:27:38;;;;;;;5.70;4.05;;;5.10;98.30;;;;;;5093435;28;20040;-73
2021/03/20 01:30:14;;;;;;;11.75;5.75;;;5.20;98.40;;;;;;5091825;28;20077;-73
2021/03/20 01:32:40;;;;;;;4.38;3.88;;;5.10;98.40;;;;;;5093240;28;20114;-73
2021/03/20 01:35:06;;;;;;;6.28;4.90;;;5.20;98.30;;;;;;5094029;28;20081;-73
2021/03/20 01:37:32;;;;;;;7.63;3.42;;;5.20;98.30;;;;;;5093464;28;20028;-73
2021/03/20 01:39:58;;;;;;;6.53;4.15;;;5.20;98.30;;;;;;5084089;28;20028;-73
2021/03/20 01:42:23;;;;;;;5.00;3.97;;;5.30;98.20;;;;;;5092998;28;20016;-72
2021/03/20 01:45:09;;;;;;;5.18;4.15;;;5.20;98.20;;;;;;5087738;28;20036;-72
2021/03/20 01:47:43;;;;;;;4.68;3.97;;;5.20;98.10;;;;;;5091365;28;20111;-72
2021/03/20 01:50:20;;;;;;;6.50;4.15;;;5.20;98.00;;;;;;5092967;28;20031;-72
2021/03/20 01:52:50;;;;;;;6.18;4.78;;;5.20;98.10;;;;;;5091384;28;20099;-72
2021/03/20 01:55:17;;;;;;;4.78;3.97;;;5.20;98.20;;;;;;5093925;28;20020;-73
2021/03/20 01:57:49;;;;;;;4.68;3.88;;;5.10;98.20;;;;;;5095520;28;20034;-73
2021/03/20 02:00:19;;;;;;;5.05;4.00;;;5.20;98.30;;;;;;5089342;28;20020;-73
2021/03/20 02:02:45;;;;;;;8.07;4.13;;;5.10;98.30;;;;;;5093477;28;20082;-72
2021/03/20 02:05:17;;;;;;;8.30;5.25;;;5.00;98.40;;;;;;5092717;28;20028;-72
2021/03/20 02:07:43;;;;;;;7.28;4.32;;;5.00;98.40;;;;;;5092901;28;20104;-72
2021/03/20 02:10:09;;;;;;;6.00;4.68;;;5.10;98.40;;;;;;5092992;28;20106;-73
2021/03/20 02:12:38;;;;;;;5.85;3.78;;;5.10;98.40;;;;;;5092656;28;20032;-73
2021/03/20 02:15:12;;;;;;;5.53;4.20;;;5.10;98.30;;;;;;5093427;28;20031;-73
2021/03/20 02:18:08;;;;;;;5.95;5.18;;;5.00;98.30;;;;;;5094371;28;20028;-72
2021/03/20 02:21:02;;;;;;;5.35;4.03;;;5.10;98.50;;;;;;5087445;28;20044;-73
2021/03/20 02:23:34;;;;;;;6.80;4.32;;;5.00;98.30;;;;;;5083149;28;20080;-72
2021/03/20 02:26:27;;;;;;;4.50;4.10;;;5.00;98.50;;;;;;5094268;28;20031;-72
2021/03/20 02:29:17;;;;;;;7.40;4.35;;;5.00;98.60;;;;;;5091882;28;20016;-72
2021/03/20 02:32:06;;;;;;;6.80;3.90;;;4.90;98.60;;;;;;5088716;28;20033;-71
2021/03/20 02:34:48;;;;;;;7.38;4.68;;;4.90;98.90;;;;;;5086687;28;20040;-73
2021/03/20 02:37:41;;;;;;;5.82;4.38;;;4.80;98.90;;;;;;5089355;28;20028;-72
2021/03/20 02:40:15;;;;;;;5.38;4.88;;;4.80;99.00;;;;;;5091145;28;20048;-72
2021/03/20 02:42:58;;;;;;;4.32;3.92;;;4.80;98.90;;;;;;5094762;28;20020;-72
2021/03/20 02:45:53;;;;;;;5.47;4.45;;;4.80;99.00;;;;;;5087381;28;20020;-73
2021/03/20 02:48:28;;;;;;;5.65;4.03;;;4.80;99.10;;;;;;5090241;28;20029;-72
2021/03/20 02:51:14;;;;;;;6.57;4.32;;;4.80;99.30;;;;;;5090941;28;20028;-73
2021/03/20 02:54:07;;;;;;;5.85;4.28;;;4.70;99.50;;;;;;5090538;28;20024;-72
2021/03/20 02:56:46;;;;;;;5.60;4.20;;;4.70;99.20;;;;;;5091097;28;20073;-72
2021/03/20 02:59:14;;;;;;;7.97;4.45;;;4.80;99.20;;;;;;5091122;28;20031;-72
2021/03/20 03:01:46;;;;;;;8.07;4.00;;;4.80;99.10;;;;;;5093027;28;20028;-73
2021/03/20 03:04:14;;;;;;;7.30;4.83;;;4.90;99.20;;;;;;5091275;28;20033;-73
2021/03/20 03:07:11;;;;;;;5.57;4.03;;;4.90;99.30;;;;;;5090754;28;20081;-73
2021/03/20 03:09:44;;;;;;;8.80;4.20;;;4.80;99.30;;;;;;5091120;28;20040;-73
2021/03/20 03:12:15;;;;;;;4.30;3.88;;;4.80;99.40;;;;;;5091492;28;20024;-72
2021/03/20 03:14:54;;;;;;;5.05;4.53;;;4.80;99.50;;;;;;5089922;28;20055;-73
2021/03/20 03:17:23;;;;;;;5.22;4.43;;;4.90;99.40;;;;;;5096717;28;20031;-73
2021/03/20 03:19:59;;;;;;;5.75;3.63;;;4.90;99.30;;;;;;5096940;28;20103;-73
2021/03/20 03:22:33;;;;;;;6.38;5.75;;;5.00;99.40;;;;;;5095020;28;20074;-72
2021/03/20 03:25:05;;;;;;;6.05;4.60;;;5.00;99.40;;;;;;5091165;28;20047;-73
2021/03/20 03:27:36;;;;;;;10.15;4.25;;;5.00;99.40;;;;;;5091826;28;20104;-73
2021/03/20 03:30:09;;;;;;;6.68;4.28;;;5.00;99.40;;;;;;5097133;28;20031;-73
2021/03/20 03:32:39;;;;;;;7.35;3.92;;;4.90;99.60;;;;;;5091247;28;20031;-73
2021/03/20 03:35:18;;;;;;;9.05;5.05;;;4.90;99.70;;;;;;5093999;28;20048;-73
2021/03/20 03:38:22;;;;;;;7.82;5.13;;;4.90;99.90;;;;;;5094402;28;20483;-73
2021/03/20 03:41:29;;;;;;;6.13;4.35;;;4.80;99.90;;;;;;5084492;28;20032;-72
2021/03/20 03:43:55;;;;;;;6.22;4.85;;;4.80;99.90;;;;;;5096318;28;20428;-71
2021/03/20 03:46:26;;;;;;;5.10;4.50;;;4.80;99.90;;;;;;5091499;28;20020;-72
2021/03/20 03:48:54;;;;;;;6.65;5.28;;;5.10;99.90;;;;;;5095609;28;20028;-72
2021/03/20 03:51:21;;;;;;;10.10;6.03;;;5.20;99.60;;;;;;5094335;28;20036;-71
2021/03/20 03:53:47;;;;;;;7.10;5.30;;;5.40;99.30;;;;;;5085604;28;20103;-72
2021/03/20 03:56:21;;;;;;;6.15;5.22;;;5.40;99.00;;;;;;5089770;28;20092;-72
2021/03/20 03:59:16;;;;;;;13.70;5.53;;;5.50;98.60;;;;;;5089580;28;20032;-72
2021/03/20 04:02:06;;;;;;;6.90;5.25;;;5.50;98.70;;;;;;5086493;28;20091;-72
2021/03/20 04:04:37;;;;;;;6.28;4.65;;;5.50;98.50;;;;;;5088117;28;20368;-73
2021/03/20 04:07:24;;;;;;;6.45;4.90;;;5.50;98.40;;;;;;5097434;28;20106;-72
2021/03/20 04:10:05;;;;;;;5.97;4.13;;;5.50;98.40;;;;;;5092876;28;20028;-72
2021/03/20 04:13:03;;;;;;;5.97;4.50;;;5.40;98.30;;;;;;5090422;28;20142;-72
2021/03/20 04:15:58;;;;;;;5.68;5.03;;;5.40;98.10;;;;;;5099031;28;20146;-72
2021/03/20 04:18:34;;;;;;;6.82;4.70;;;5.40;98.50;;;;;;5090774;28;20028;-74
2021/03/20 04:21:12;;;;;;;8.90;5.70;;;5.50;98.30;;;;;;5094729;28;20023;-72
2021/03/20 04:23:50;;;;;;;6.88;5.60;;;5.50;98.50;;;;;;5094650;28;20222;-72
2021/03/20 04:26:34;;;;;;;8.02;5.60;;;5.40;98.60;;;;;;5093091;28;20479;-73
2021/03/20 04:29:19;;;;;;;7.65;5.00;;;5.30;98.40;;;;;;5094264;28;20538;-74
2021/03/20 04:32:01;;;;;;;4.72;4.22;;;5.20;99.10;;;;;;5092859;28;20529;-74
2021/03/20 04:34:39;;;;;;;4.43;3.92;;;5.00;99.30;;;;;;5091006;28;20031;-72
2021/03/20 04:37:12;;;;;;;5.85;4.55;;;4.90;99.70;;;;;;5094825;28;20190;-73
2021/03/20 04:39:46;;;;;;;8.73;5.28;;;4.70;99.90;;;;;;5094772;28;20035;-72
2021/03/20 04:42:14;;;;;;;7.53;4.65;;;4.60;99.90;;;;;;5088037;28;20028;-72
2021/03/20 04:44:40;;;;;;;7.20;5.20;;;4.50;99.90;;;;;;5093357;28;20020;-72
2021/03/20 04:47:12;;;;;;;7.03;5.00;;;4.50;99.90;;;;;;5096561;28;20024;-72
2021/03/20 04:49:43;;;;;;;5.28;3.88;;;4.60;99.90;;;;;;5094356;28;20641;-74
2021/03/20 04:52:20;;;;;;;9.93;5.32;;;4.50;99.90;;;;;;5093969;28;20028;-73
2021/03/20 04:54:46;;;;;;;11.32;6.22;;;4.60;99.90;;;;;;5092614;28;20032;-73
2021/03/20 04:57:40;;;;;;;6.40;4.95;;;4.70;99.90;;;;;;5092783;28;20036;-73
2021/03/20 05:00:14;;;;;;;7.30;4.90;;;4.70;99.90;;;;;;5097525;28;20384;-72
2021/03/20 05:02:52;;;;;;;6.82;5.32;;;4.70;99.70;;;;;;5088125;28;20016;-73
2021/03/20 05:05:28;;;;;;;6.07;4.18;;;4.80;99.90;;;;;;5095495;28;20035;-72
2021/03/20 05:07:58;;;;;;;7.07;4.88;;;4.90;99.80;;;;;;5094566;28;20051;-72
2021/03/20 05:10:51;;;;;;;9.88;5.45;;;5.00;99.60;;;;;;5086984;28;20066;-72
2021/03/20 05:13:29;;;;;;;6.95;5.30;;;5.10;99.20;;;;;;5091457;28;20035;-72
2021/03/20 05:16:04;;;;;;;6.25;5.18;;;5.00;99.50;;;;;;5089250;28;20028;-73
2021/03/20 05:18:30;;;;;;;7.57;5.93;;;5.10;99.40;;;;;;5086783;28;20043;-71
2021/03/20 05:20:56;;;;;;;5.00;4.43;;;5.10;99.50;;;;;;5091328;28;20059;-72
2021/03/20 05:23:22;;;;;;;11.80;5.57;;;5.10;99.50;;;;;;5092476;28;20028;-73
2021/03/20 05:25:47;;;;;;;8.70;5.95;;;5.10;99.70;;;;;;5091963;28;20039;-73
2021/03/20 05:28:13;;;;;;;6.65;4.10;;;5.10;99.70;;;;;;5090370;28;20024;-73
2021/03/20 05:30:39;;;;;;;9.85;6.10;;;5.10;99.70;;;;;;5091292;28;20114;-73
2021/03/20 05:33:05;;;;;;;7.65;5.07;;;5.00;99.80;;;;;;5090583;28;20028;-72
2021/03/20 05:35:31;;;;;;;7.40;5.55;;;5.00;99.70;;;;;;5089148;28;20027;-72
2021/03/20 05:37:57;;;;;;;10.00;6.60;;;5.00;99.70;;;;;;5091858;28;20028;-73
2021/03/20 05:40:25;;;;;;;5.97;4.72;;;5.00;99.90;;;;;;5092488;28;20117;-72
2021/03/20 05:43:28;;;;;;;9.63;6.32;;;5.00;99.80;;;;;;5095642;28;20074;-72
2021/03/20 05:46:14;;;;;;;13.15;6.80;;;5.00;99.90;;;;;;5095162;28;20035;-72
2021/03/20 05:48:53;;;;;;;7.00;4.75;;;4.90;99.90;;;;;;5084683;28;20023;-71
2021/03/20 05:51:33;;;;;;;7.03;5.85;;;4.90;99.90;;;;;;5090370;28;20028;-72
2021/03/20 05:54:26;;;;;;;6.35;4.80;;;5.00;99.90;;;;;;5091815;28;20024;-73
2021/03/20 05:57:17;;;;;;;9.95;7.43;;;5.00;99.90;;;;;;5089209;28;20032;-73
2021/03/20 06:00:07;;;;;;;8.00;6.85;;;5.00;99.90;;;;;;5080743;28;20028;-73
2021/03/20 06:02:48;;;;;;;9.18;6.43;;;5.00;99.90;;;;;;5086792;28;20081;-72
2021/03/20 06:05:40;;;;;;;8.85;6.53;;;5.00;99.90;;;;;;5089563;28;20088;-72
2021/03/20 06:08:43;;;;;;;12.45;8.38;;;5.00;99.90;;;;;;5083557;28;20456;-73
2021/03/20 06:11:35;;;;;;;8.05;6.60;;;5.00;99.90;;;;;;5086591;28;21527;-73
2021/03/20 06:14:10;;;;;;;8.45;6.13;;;5.00;99.90;;;;;;5091026;28;20117;-73
2021/03/20 06:16:59;;;;;;;8.45;5.88;;;5.10;99.90;;;;;;5084229;28;20025;-73
2021/03/20 06:19:44;;;;;;;8.80;6.70;;;5.10;99.90;;;;;;5085377;28;20020;-73
2021/03/20 06:22:56;;;;;;;10.38;6.35;;;5.00;99.90;;;;;;5095113;28;20032;-73
2021/03/20 06:25:59;;;;;;;7.60;6.43;;;5.00;99.90;;;;;;5034252;28;20021;-73
2021/03/20 06:28:31;;;;;;;;;;;5.20;99.90;;;;;;5083123;28;20722;-73
2021/03/20 06:31:02;;;;;;;12.27;6.80;;;5.30;99.90;;;;;;5090529;28;19943;-73
2021/03/20 06:33:32;;;;;;;9.48;7.43;;;5.30;99.90;;;;;;5086594;28;20031;-74
2021/03/20 06:36:16;;;;;;;8.02;6.88;;;5.30;99.90;;;;;;5087965;28;20028;-73
2021/03/20 06:38:44;;;;;;;8.32;6.88;;;5.40;99.90;;;;;;5082897;28;20021;-73
2021/03/20 06:41:25;;;;;;;10.50;7.30;;;5.40;99.90;;;;;;5089434;28;20024;-71
2021/03/20 06:43:59;;;;;;;10.07;7.10;;;5.40;99.90;;;;;;5090430;28;20020;-74
2021/03/20 06:46:34;;;;;;;8.68;7.03;;;5.60;99.90;;;;;;5086341;28;20035;-74
2021/03/20 06:49:01;;;;;;;12.05;7.13;;;5.60;99.90;;;;;;5088257;28;20142;-73
2021/03/20 06:51:28;;;;;;;7.85;6.50;;;5.70;99.90;;;;;;5088717;28;20035;-72
2021/03/20 06:54:04;;;;;;;12.10;7.57;;;5.70;99.90;;;;;;5089275;28;20078;-72
2021/03/20 06:56:36;;;;;;;9.93;7.20;;;5.80;99.90;;;;;;5079072;28;20004;-72
2021/03/20 06:59:11;;;;;;;10.43;6.93;;;6.00;99.90;;;;;;5091143;28;20042;-73
2021/03/20 07:01:51;;;;;;;9.60;7.32;;;6.00;99.90;;;;;;5080843;28;20028;-72
2021/03/20 07:04:43;;;;;;;6.95;6.28;;;6.00;99.90;;;;;;5079027;28;20081;-74
2021/03/20 07:07:35;;;;;;;11.68;7.32;;;6.10;99.90;;;;;;5072155;28;20032;-72
2021/03/20 07:10:03;;;;;;;10.05;6.68;;;6.10;99.90;;;;;;5089178;28;20024;-74
2021/03/20 07:12:30;;;;;;;12.50;7.65;;;6.30;99.90;;;;;;5091812;28;20502;-73
2021/03/20 07:14:58;;;;;;;8.80;7.43;;;6.30;99.90;;;;;;5089059;28;20453;-72
2021/03/20 07:17:29;;;;;;;9.35;8.45;;;6.40;99.90;;;;;;5081494;28;20552;-72
2021/03/20 07:20:24;;;;;;;9.02;5.10;;;6.50;99.90;;;;;;5093323;28;20028;-74
2021/03/20 07:23:08;;;;;;;8.25;6.38;;;6.70;99.90;;;;;;5086595;28;20111;-73
2021/03/20 07:25:40;;;;;;;11.75;6.60;;;6.70;99.90;;;;;;5086871;28;20035;-73
2021/03/20 07:28:09;;;;;;;11.00;8.60;;;6.80;99.90;;;;;;5086913;28;20028;-73
2021/03/20 07:30:37;;;;;;;7.43;6.45;;;6.80;99.90;;;;;;5089157;28;20036;-73
2021/03/20 07:33:25;;;;;;;9.02;6.00;;;6.80;99.90;;;;;;5084485;28;20048;-73
2021/03/20 07:35:55;;;;;;;16.52;8.90;;;6.80;99.90;;;;;;5082781;28;20603;-73
2021/03/20 07:38:28;;;;;;;8.95;7.20;;;6.80;99.90;;;;;;5091789;28;20273;-73
2021/03/20 07:41:14;;;;;;;7.50;5.72;;;6.90;99.90;;;;;;5093770;28;20391;-73
2021/03/20 07:43:40;;;;;;;12.57;9.13;;;6.90;99.90;;;;;;5092185;28;20042;-74
2021/03/20 07:46:14;;;;;;;6.50;5.90;;;6.90;99.90;;;;;;5094358;28;20054;-74
2021/03/20 07:48:40;;;;;;;8.20;7.00;;;6.90;99.90;;;;;;5096852;28;20028;-74
2021/03/20 07:51:15;;;;;;;10.60;9.38;;;7.00;99.90;;;;;;5092228;28;20036;-72
2021/03/20 07:53:47;;;;;;;14.23;9.32;;;7.00;99.90;;;;;;5093499;28;20208;-74
2021/03/20 07:56:13;;;;;;;9.43;7.45;;;7.10;99.90;;;;;;5090841;28;20072;-74
2021/03/20 07:58:59;;;;;;;6.97;6.10;;;7.20;99.90;;;;;;5093943;28;20027;-75
2021/03/20 08:01:30;;;;;;;10.43;6.15;;;7.40;99.90;;;;;;5084528;28;20028;-74
2021/03/20 08:04:01;;;;;;;8.80;7.57;;;7.30;99.90;;;;;;5094965;28;20111;-73
2021/03/20 08:06:40;;;;;;;6.88;6.28;;;7.40;99.90;;;;;;5092801;28;20039;-73
2021/03/20 08:09:10;;;;;;;10.30;7.40;;;7.40;99.90;;;;;;5087918;28;20040;-73
2021/03/20 08:11:36;;;;;;;11.48;8.75;;;7.30;99.90;;;;;;5089158;28;20415;-74
2021/03/20 08:14:15;;;;;;;9.55;7.50;;;7.30;99.90;;;;;;5093229;28;20035;-73
2021/03/20 08:16:42;;;;;;;8.80;7.93;;;7.30;99.90;;;;;;5092514;28;20518;-69
2021/03/20 08:19:13;;;;;;;12.15;8.75;;;7.20;99.90;;;;;;5090481;28;20487;-71
2021/03/20 08:22:00;;;;;;;10.75;6.85;;;7.30;99.90;;;;;;5093797;28;20083;-71
2021/03/20 08:24:41;;;;;;;10.27;8.55;;;7.40;99.90;;;;;;5086942;28;20024;-70
2021/03/20 08:27:40;;;;;;;9.85;7.97;;;7.40;99.90;;;;;;5091349;28;20039;-72
2021/03/20 08:30:43;;;;;;;8.48;7.63;;;7.60;99.90;;;;;;5090257;28;20055;-70
2021/03/20 08:33:17;;;;;;;8.20;7.00;;;7.70;99.90;;;;;;5092445;28;20028;-62
2021/03/20 08:35:49;;;;;;;9.75;8.02;;;8.00;99.90;;;;;;5091341;28;20024;-68
2021/03/20 08:38:18;;;;;;;8.40;7.18;;;8.10;99.90;;;;;;5092590;28;20028;-64
2021/03/20 08:40:47;;;;;;;13.23;8.23;;;8.00;99.90;;;;;;5090285;28;20024;-66
2021/03/20 08:43:32;;;;;;;10.27;7.97;;;7.90;99.90;;;;;;5090726;28;20121;-72
2021/03/20 08:46:10;;;;;;;11.65;8.98;;;7.90;99.90;;;;;;5091155;28;20097;-70
2021/03/20 08:48:56;;;;;;;10.82;8.32;;;8.00;99.70;;;;;;5083968;28;20028;-70
2021/03/20 08:51:35;;;;;;;9.80;8.73;;;8.20;99.90;;;;;;5089876;28;20035;-71
2021/03/20 08:54:07;;;;;;;11.70;9.32;;;8.30;99.90;;;;;;5088136;28;20020;-74
2021/03/20 08:57:07;;;;;;;7.15;6.45;;;8.40;99.60;;;;;;5086105;28;20099;-72
2021/03/20 08:59:39;;;;;;;8.65;6.88;;;8.10;99.20;;;;;;5089300;28;20036;-71
2021/03/20 09:02:39;;;;;;;6.90;5.22;;;8.10;99.10;;;;;;5089446;28;20039;-72
2021/03/20 09:05:05;;;;;;;7.47;5.90;;;8.10;98.80;;;;;;5060126;28;20376;-72
2021/03/20 09:07:56;;;;;;;5.75;4.85;;;8.00;98.50;;;;;;5089826;28;20028;-72
2021/03/20 09:10:42;;;;;;;9.00;6.93;;;8.00;98.40;;;;;;5091561;28;20081;-71
2021/03/20 09:13:32;;;;;;;8.65;6.70;;;8.10;98.50;;;;;;5083946;28;20153;-71
2021/03/20 09:16:03;;;;;;;8.73;6.40;;;8.30;98.70;;;;;;5089809;28;20120;-72
2021/03/20 09:18:30;;;;;;;8.67;6.30;;;8.30;98.50;;;;;;5087415;28;20027;-72
2021/03/20 09:21:03;;;;;;;8.23;6.22;;;8.20;98.10;;;;;;5089986;28;20313;-71
2021/03/20 09:23:32;;;;;;;5.68;5.18;;;8.30;98.10;;;;;;5085225;28;20024;-71
2021/03/20 09:26:07;;;;;;;7.50;6.68;;;8.30;97.90;;;;;;5082404;28;20026;-72
2021/03/20 09:28:50;;;;;;;8.55;5.28;;;8.20;97.60;;;;;;5089471;28;20047;-71
2021/03/20 09:31:28;;;;;;;7.65;5.68;;;8.40;97.30;;;;;;5089555;28;20506;-72
2021/03/20 09:33:55;;;;;;;11.90;6.68;;;8.50;97.50;;;;;;5087689;28;20039;-71
2021/03/20 09:36:21;;;;;;;7.68;6.05;;;8.60;97.50;;;;;;5091754;28;20486;-70
2021/03/20 09:38:49;;;;;;;6.28;5.22;;;8.70;97.40;;;;;;5092353;28;20031;-73
2021/03/20 09:41:15;;;;;;;8.13;5.68;;;8.60;96.90;;;;;;5089466;28;20024;-70
2021/03/20 09:43:40;;;;;;;9.27;7.22;;;8.60;96.70;;;;;;5090250;28;20407;-71
2021/03/20 09:46:40;;;;;;;6.60;6.00;;;8.70;97.60;;;;;;5090877;28;20382;-71
2021/03/20 09:49:06;;;;;;;9.52;6.32;;;9.00;97.40;;;;;;5089259;28;20101;-72
2021/03/20 09:56:52;;;;;;;6.40;5.82;;;8.80;97.10;;;;;;5090265;28;20031;-71
2021/03/20 09:59:27;;;;;;;7.60;6.18;;;8.70;97.30;;;;;;5083654;28;20101;-72
2021/03/20 10:01:54;;;;;;;6.93;5.57;;;8.60;97.20;;;;;;5086755;28;20028;-71
2021/03/20 10:04:26;;;;;;;9.00;6.82;;;8.70;97.00;;;;;;5090608;28;20036;-72
2021/03/20 10:07:20;;;;;;;5.72;4.72;;;8.60;97.70;;;;;;5083756;28;20455;-72
2021/03/20 10:09:57;;;;;;;5.22;4.60;;;8.80;96.90;;;;;;5090798;28;20499;-70
2021/03/20 10:12:29;;;;;;;11.70;4.55;;;8.60;97.10;;;;;;5089717;28;20074;-71
2021/03/20 10:15:09;;;;;;;;;;;8.60;96.90;;;;;;5083628;28;20034;-71
2021/03/20 10:17:59;;;;;;;5.22;4.63;;;8.70;97.50;;;;;;5082657;28;21458;-73
2021/03/20 10:20:43;;;;;;;7.47;4.28;;;8.80;96.70;;;;;;5080504;28;20025;-72
2021/03/20 10:23:24;;;;;;;4.55;4.15;;;9.00;96.80;;;;;;5087839;28;20487;-73
2021/03/20 10:25:52;;;;;;;6.97;4.93;;;9.00;96.60;;;;;;5089620;28;20391;-72
2021/03/20 10:28:19;;;;;;;6.53;5.88;;;8.90;97.30;;;;;;5090577;28;20127;-73
2021/03/20 10:31:02;;;;;;;5.25;4.78;;;8.80;96.70;;;;;;5090142;28;20714;-73
2021/03/20 10:33:29;;;;;;;;;;;8.90;97.50;;;;;;5084574;28;20103;-72
2021/03/20 10:36:17;;;;;;;3.33;2.88;;;9.00;96.40;;;;;;5090485;28;19904;-72
2021/03/20 10:38:43;;;;;;;4.78;4.28;;;8.90;95.90;;;;;;5089856;28;20387;-72
2021/03/20 10:41:21;;;;;;;3.97;3.63;;;8.90;96.30;;;;;;5082235;28;20376;-72
2021/03/20 10:44:16;;;;;;;4.70;4.13;;;9.10;96.70;;;;;;5089113;28;20031;-73
2021/03/20 10:46:42;;;;;;;3.67;3.38;;;8.90;97.30;;;;;;5090470;28;20020;-73
2021/03/20 10:49:15;;;;;;;4.32;3.92;;;9.00;96.30;;;;;;5087121;28;20508;-74
2021/03/20 10:51:43;;;;;;;4.60;3.67;;;9.00;96.70;;;;;;5083072;28;20491;-72
2021/03/20 10:54:28;;;;;;;4.20;3.90;;;9.10;96.40;;;;;;5082882;28;20083;-73
2021/03/20 10:57:00;;;;;;;5.65;4.47;;;9.00;96.30;;;;;;5085076;28;20049;-73
2021/03/20 10:59:35;;;;;;;6.80;4.13;;;8.80;96.00;;;;;;5087338;28;20122;-73
2021/03/20 11:02:19;;;;;;;5.03;4.20;;;8.70;96.10;;;;;;5089642;28;20070;-73
2021/03/20 11:04:45;;;;;;;4.13;3.67;;;8.80;96.60;;;;;;5090775;28;20052;-73
2021/03/20 11:07:16;;;;;;;4.45;4.00;;;9.10;96.20;;;;;;5089661;28;20048;-74
2021/03/20 11:09:42;;;;;;;4.23;3.57;;;9.30;95.70;;;;;;5088862;28;20076;-75
2021/03/20 11:12:17;;;;;;;4.13;3.70;;;9.40;95.40;;;;;;5089529;28;20322;-70
2021/03/20 11:14:58;;;;;;;4.20;3.80;;;9.20;95.20;;;;;;5092525;28;20048;-69
2021/03/20 11:17:28;;;;;;;3.85;3.50;;;9.00;95.00;;;;;;5087551;28;20099;-69
2021/03/20 11:20:22;;;;;;;2.97;2.65;;;9.00;95.20;;;;;;5094423;28;20567;-71
2021/03/20 11:22:50;;;;;;;3.05;2.72;;;9.00;94.40;;;;;;5087648;28;20031;-71
2021/03/20 11:25:29;;;;;;;4.18;2.85;;;9.00;94.70;;;;;;5094984;28;20024;-69
2021/03/20 11:28:02;;;;;;;3.22;2.92;;;9.20;93.50;;;;;;5093148;28;20056;-67
2021/03/20 11:30:39;;;;;;;3.88;3.38;;;9.20;92.70;;;;;;5086367;28;20024;-71
2021/03/20 11:33:05;;;;;;;3.47;3.17;;;9.20;93.40;;;;;;5094218;28;20032;-71
2021/03/20 11:35:44;;;;;;;5.18;2.55;;;9.10;93.10;;;;;;5092770;28;20054;-71
2021/03/20 11:38:14;;;;;;;3.17;2.35;;;9.20;92.90;;;;;;5093063;28;20039;-71
2021/03/20 11:40:45;;;;;;;4.63;2.67;;;9.30;91.20;;;;;;5094371;28;20054;-72
2021/03/20 11:43:25;;;;;;;6.07;2.17;;;9.00;91.80;;;;;;5092873;28;20059;-70
2021/03/20 11:46:08;;;;;;;2.65;2.28;;;9.10;92.10;;;;;;5090105;28;20274;-71
2021/03/20 11:48:33;;;;;;;;;;;9.10;91.20;;;;;;5088267;28;20028;-72
2021/03/20 11:51:01;;;;;;;4.13;2.85;;;9.10;91.60;;;;;;5091855;28;20010;-71
2021/03/20 11:53:35;;;;;;;4.75;2.50;;;9.40;91.70;;;;;;5085349;28;20051;-71
2021/03/20 11:56:23;;;;;;;3.47;3.10;;;9.30;91.00;;;;;;5092503;28;20217;-72
2021/03/20 11:58:52;;;;;;;2.70;2.50;;;9.30;92.10;;;;;;5095270;28;20024;-70
2021/03/20 12:01:46;;;;;;;3.55;3.10;;;9.00;91.90;;;;;;5094514;28;20161;-71
2021/03/20 12:04:20;;;;;;;4.97;3.47;;;9.30;92.60;;;;;;5091030;28;20487;-71
2021/03/20 12:06:46;;;;;;;3.40;2.35;;;9.40;92.30;;;;;;5092094;28;20073;-71
2021/03/20 12:09:24;;;;;;;3.42;3.13;;;9.40;92.20;;;;;;5093132;28;20028;-70
2021/03/20 12:11:51;;;;;;;2.88;2.58;;;9.30;92.10;;;;;;5094465;28;20085;-69
2021/03/20 12:14:38;;;;;;;5.43;2.75;;;9.30;92.10;;;;;;5093371;28;20024;-71
2021/03/20 12:17:22;;;;;;;4.50;3.38;;;9.30;91.60;;;;;;5092943;28;20035;-69
2021/03/20 12:19:58;;;;;;;5.32;2.72;;;9.30;92.10;;;;;;5082425;28;20119;-70
2021/03/20 12:22:29;;;;;;;3.25;2.95;;;9.50;91.40;;;;;;5084166;28;20052;-72
2021/03/20 12:25:05;;;;;;;3.67;3.38;;;9.50;92.20;;;;;;5087729;28;20024;-72
2021/03/20 12:27:30;;;;;;;3.42;3.08;;;9.80;91.50;;;;;;5087229;28;20023;-72
2021/03/20 12:30:14;;;;;;;3.80;3.22;;;9.60;91.20;;;;;;5092235;28;20047;-70
2021/03/20 12:32:43;;;;;;;3.38;3.08;;;9.70;91.60;;;;;;5089902;28;20024;-70
2021/03/20 12:35:20;;;;;;;3.67;3.28;;;9.90;91.50;;;;;;5090637;28;20055;-70
2021/03/20 12:38:03;;;;;;;5.28;4.05;;;9.90;91.40;;;;;;5085965;28;20028;-69
2021/03/20 12:40:30;;;;;;;3.85;3.47;;;9.90;91.00;;;;;;5090859;28;20027;-71
2021/03/20 12:43:00;;;;;;;4.43;3.65;;;10.00;91.10;;;;;;5086867;28;20108;-69
2021/03/20 12:45:28;;;;;;;5.82;4.32;;;10.00;91.00;;;;;;5085451;28;20024;-71
2021/03/20 12:47:54;;;;;;;4.65;3.78;;;10.00;91.00;;;;;;5084248;28;20020;-71
2021/03/20 12:50:20;;;;;;;4.38;3.42;;;9.70;91.50;;;;;;5083748;28;21880;-71
2021/03/20 12:52:46;;;;;;;5.53;4.40;;;10.00;91.40;;;;;;5083507;28;20225;-69
2021/03/20 12:55:12;;;;;;;5.30;4.18;;;10.10;91.10;;;;;;5084828;28;20039;-71
2021/03/20 12:57:38;;;;;;;5.90;4.00;;;10.00;91.00;;;;;;5082328;28;20081;-72
2021/03/20 13:00:17;;;;;;;4.63;3.95;;;9.60;91.30;;;;;;5086800;28;20081;-72
2021/03/20 13:02:43;;;;;;;5.05;3.85;;;9.80;91.80;;;;;;5089725;28;20135;-73
2021/03/20 13:05:14;;;;;;;9.00;8.00;;;9.90;91.10;;;;;;5091428;28;20119;-73
2021/03/20 13:07:40;;;;;;;5.28;4.78;;;9.90;91.60;;;;;;5090063;28;20051;-73
2021/03/20 13:10:06;;;;;;;5.68;4.53;;;10.00;91.70;;;;;;5090529;28;20059;-75
2021/03/20 13:12:31;;;;;;;5.13;4.47;;;10.30;91.80;;;;;;5090641;28;20132;-73
2021/03/20 13:14:57;;;;;;;6.28;5.68;;;10.50;91.60;;;;;;5086292;28;20627;-71
2021/03/20 13:17:23;;;;;;;5.82;5.15;;;10.40;90.30;;;;;;5092557;28;20035;-71
2021/03/20 13:19:48;;;;;;;5.32;4.85;;;10.00;90.10;;;;;;5084880;28;20048;-72
2021/03/20 13:22:14;;;;;;;5.75;4.88;;;10.10;90.70;;;;;;5092339;28;20479;-70
2021/03/20 13:24:40;;;;;;;5.85;5.25;;;10.00;90.60;;;;;;5090063;28;20028;-71
2021/03/20 13:27:08;;;;;;;6.13;4.68;;;10.00;91.10;;;;;;5086729;28;20164;-70
2021/03/20 13:29:34;;;;;;;5.07;4.15;;;10.20;90.70;;;;;;5090323;28;20034;-69
2021/03/20 13:31:59;;;;;;;5.65;5.15;;;10.40;90.10;;;;;;5090605;28;20039;-69
2021/03/20 13:34:25;;;;;;;7.32;5.30;;;10.20;88.70;;;;;;5102132;28;20505;-70
2021/03/20 13:36:52;;;;;;;4.70;4.30;;;10.20;88.30;;;;;;5089700;28;20081;-70
2021/03/20 13:39:17;;;;;;;5.68;5.07;;;10.20;89.70;;;;;;5090725;28;20024;-71
2021/03/20 13:41:43;;;;;;;6.47;4.88;;;10.10;89.20;;;;;;5091086;28;20035;-72